sensor_id;sensor_type;location;lat;lon;timestamp;temperature;humidity
5007;DHT22;2522;50.972;11.046;2022-07-01T03:31:13;20.20;99.90
5007;DHT22;2522;50.972;11.046;2022-07-01T03:33:40;20.10;99.90
5007;DHT22;2522;50.972;11.046;2022-07-01T03:36:06;20.10;99.90
5007;DHT22;2522;50.972;11.046;2022-07-01T03:38:34;20.00;99.90
5007;DHT22;2522;50.972;11.046;2022-07-01T03:41:01;20.00;99.90
5007;DHT22;2522;50.972;11.046;2022-07-01T03:43:27;20.00;99.90
5007;DHT22;2522;50.972;11.046;2022-07-01T03:45:54;20.00;99.90
5007;DHT22;2522;50.972;11.046;2022-07-01T03:48:22;20.00;99.90
5007;DHT22;2522;50.972;11.046;2022-07-01T03:50:51;20.00;99.90
5007;DHT22;2522;50.972;11.046;2022-07-01T03:53:17;20.00;99.90
5007;DHT22;2522;50.972;11.046;2022-07-01T03:56:05;19.90;99.90
5007;DHT22;2522;50.972;11.046;2022-07-01T03:58:31;19.90;99.90
5007;DHT22;2522;50.972;11.046;2022-07-01T04:00:58;19.80;99.90
5007;DHT22;2522;50.972;11.046;2022-07-01T04:03:26;19.70;99.90
5007;DHT22;2522;50.972;11.046;2022-07-01T04:05:53;19.70;99.90
5007;DHT22;2522;50.972;11.046;2022-07-01T04:08:20;19.70;99.90
5007;DHT22;2522;50.972;11.046;2022-07-01T04:10:46;19.70;99.90
5007;DHT22;2522;50.972;11.046;2022-07-01T04:13:14;19.70;99.90
5007;DHT22;2522;50.972;11.046;2022-07-01T04:15:41;19.70;99.90
5007;DHT22;2522;50.972;11.046;2022-07-01T04:18:08;19.70;99.90
5007;DHT22;2522;50.972;11.046;2022-07-01T04:20:36;19.80;99.90
5007;DHT22;2522;50.972;11.046;2022-07-01T04:23:02;19.80;99.90
5007;DHT22;2522;50.972;11.046;2022-07-01T04:25:30;19.80;99.90
5007;DHT22;2522;50.972;11.046;2022-07-01T04:27:56;19.80;99.90
5007;DHT22;2522;50.972;11.046;2022-07-01T04:30:23;19.90;99.90
5007;DHT22;2522;50.972;11.046;2022-07-01T04:32:50;20.00;99.90
5007;DHT22;2522;50.972;11.046;2022-07-01T04:35:19;20.10;99.90
5007;DHT22;2522;50.972;11.046;2022-07-01T04:37:47;20.10;99.90
5007;DHT22;2522;50.972;11.046;2022-07-01T04:40:14;20.10;99.90
5007;DHT22;2522;50.972;11.046;2022-07-01T04:42:41;20.10;99.90
5007;DHT22;2522;50.972;11.046;2022-07-01T04:45:06;20.20;99.90
5007;DHT22;2522;50.972;11.046;2022-07-01T04:47:35;20.20;99.90
5007;DHT22;2522;50.972;11.046;2022-07-01T04:50:02;20.30;99.90
5007;DHT22;2522;50.972;11.046;2022-07-01T04:52:29;20.30;99.90
5007;DHT22;2522;50.972;11.046;2022-07-01T04:54:57;20.30;99.90
5007;DHT22;2522;50.972;11.046;2022-07-01T04:57:23;20.20;99.90
5007;DHT22;2522;50.972;11.046;2022-07-01T04:59:50;20.10;99.90
5007;DHT22;2522;50.972;11.046;2022-07-01T05:02:17;20.00;99.90
5007;DHT22;2522;50.972;11.046;2022-07-01T05:04:43;19.90;99.90
5007;DHT22;2522;50.972;11.046;2022-07-01T05:07:10;19.80;99.90
5007;DHT22;2522;50.972;11.046;2022-07-01T05:09:53;19.80;99.90
5007;DHT22;2522;50.972;11.046;2022-07-01T05:12:21;19.70;99.90
5007;DHT22;2522;50.972;11.046;2022-07-01T05:14:48;19.60;99.90
5007;DHT22;2522;50.972;11.046;2022-07-01T05:17:15;19.60;99.90
5007;DHT22;2522;50.972;11.046;2022-07-01T05:19:41;19.50;99.90
5007;DHT22;2522;50.972;11.046;2022-07-01T05:22:25;19.40;99.90
5007;DHT22;2522;50.972;11.046;2022-07-01T05:24:52;19.50;99.90
5007;DHT22;2522;50.972;11.046;2022-07-01T05:27:19;19.50;99.90
5007;DHT22;2522;50.972;11.046;2022-07-01T05:29:47;19.50;99.90
5007;DHT22;2522;50.972;11.046;2022-07-01T05:32:14;19.40;99.90
5007;DHT22;2522;50.972;11.046;2022-07-01T05:34:40;19.40;99.90
5007;DHT22;2522;50.972;11.046;2022-07-01T05:37:08;19.40;99.90
5007;DHT22;2522;50.972;11.046;2022-07-01T05:39:34;19.40;99.90
5007;DHT22;2522;50.972;11.046;2022-07-01T05:42:01;19.40;99.90
5007;DHT22;2522;50.972;11.046;2022-07-01T05:44:28;19.50;99.90
5007;DHT22;2522;50.972;11.046;2022-07-01T05:46:56;19.50;99.90
5007;DHT22;2522;50.972;11.046;2022-07-01T05:49:22;19.50;99.90
5007;DHT22;2522;50.972;11.046;2022-07-01T05:51:49;19.50;99.90
5007;DHT22;2522;50.972;11.046;2022-07-01T05:54:16;19.60;99.90
5007;DHT22;2522;50.972;11.046;2022-07-01T05:56:42;19.50;99.90
5007;DHT22;2522;50.972;11.046;2022-07-01T05:59:09;19.50;99.90
5007;DHT22;2522;50.972;11.046;2022-07-01T06:01:36;19.50;99.90
5007;DHT22;2522;50.972;11.046;2022-07-01T06:04:04;19.50;99.90
5007;DHT22;2522;50.972;11.046;2022-07-01T06:06:31;19.40;99.90
5007;DHT22;2522;50.972;11.046;2022-07-01T06:08:57;19.40;99.90
5007;DHT22;2522;50.972;11.046;2022-07-01T06:11:24;19.30;99.90
5007;DHT22;2522;50.972;11.046;2022-07-01T06:13:51;19.20;99.90
5007;DHT22;2522;50.972;11.046;2022-07-01T06:16:17;19.10;99.90
5007;DHT22;2522;50.972;11.046;2022-07-01T06:18:44;19.10;99.90
5007;DHT22;2522;50.972;11.046;2022-07-01T06:21:12;19.10;99.90
5007;DHT22;2522;50.972;11.046;2022-07-01T06:23:40;19.10;99.90
5007;DHT22;2522;50.972;11.046;2022-07-01T06:26:07;19.00;99.90
5007;DHT22;2522;50.972;11.046;2022-07-01T06:28:33;19.00;99.90
5007;DHT22;2522;50.972;11.046;2022-07-01T06:31:00;19.00;99.90
5007;DHT22;2522;50.972;11.046;2022-07-01T06:33:27;18.90;99.90
5007;DHT22;2522;50.972;11.046;2022-07-01T06:35:56;18.90;99.90
5007;DHT22;2522;50.972;11.046;2022-07-01T06:38:24;18.80;99.90
5007;DHT22;2522;50.972;11.046;2022-07-01T06:40:51;18.80;99.90
5007;DHT22;2522;50.972;11.046;2022-07-01T06:43:31;18.80;99.90
5007;DHT22;2522;50.972;11.046;2022-07-01T06:45:58;18.70;99.90
5007;DHT22;2522;50.972;11.046;2022-07-01T06:48:24;18.70;99.90
5007;DHT22;2522;50.972;11.046;2022-07-01T06:50:51;18.80;99.90
5007;DHT22;2522;50.972;11.046;2022-07-01T06:53:18;18.70;99.90
5007;DHT22;2522;50.972;11.046;2022-07-01T06:55:47;18.60;99.90
5007;DHT22;2522;50.972;11.046;2022-07-01T06:58:14;18.50;99.90
5007;DHT22;2522;50.972;11.046;2022-07-01T07:00:40;18.40;99.90
5007;DHT22;2522;50.972;11.046;2022-07-01T07:03:07;18.40;99.90
5007;DHT22;2522;50.972;11.046;2022-07-01T07:05:34;18.30;99.90
5007;DHT22;2522;50.972;11.046;2022-07-01T07:08:00;18.20;99.90
5007;DHT22;2522;50.972;11.046;2022-07-01T07:10:27;18.20;99.90
5007;DHT22;2522;50.972;11.046;2022-07-01T07:12:56;18.10;99.90
5007;DHT22;2522;50.972;11.046;2022-07-01T07:15:23;18.10;99.90
5007;DHT22;2522;50.972;11.046;2022-07-01T07:17:50;18.10;99.90
5007;DHT22;2522;50.972;11.046;2022-07-01T07:20:16;17.90;99.90
5007;DHT22;2522;50.972;11.046;2022-07-01T07:22:43;17.90;99.90
5007;DHT22;2522;50.972;11.046;2022-07-01T07:25:10;17.80;99.90
5007;DHT22;2522;50.972;11.046;2022-07-01T07:27:36;17.80;99.90
5007;DHT22;2522;50.972;11.046;2022-07-01T07:30:05;17.70;99.90
5007;DHT22;2522;50.972;11.046;2022-07-01T07:32:32;17.70;99.90
5007;DHT22;2522;50.972;11.046;2022-07-01T07:34:58;17.70;99.90
5007;DHT22;2522;50.972;11.046;2022-07-01T07:37:25;17.70;99.90
5007;DHT22;2522;50.972;11.046;2022-07-01T07:39:52;17.70;99.90
5007;DHT22;2522;50.972;11.046;2022-07-01T07:42:19;17.80;99.90
5007;DHT22;2522;50.972;11.046;2022-07-01T07:44:45;17.70;99.90
5007;DHT22;2522;50.972;11.046;2022-07-01T07:47:14;17.60;99.90
5007;DHT22;2522;50.972;11.046;2022-07-01T07:49:40;17.50;99.90
5007;DHT22;2522;50.972;11.046;2022-07-01T07:52:07;17.50;99.90
5007;DHT22;2522;50.972;11.046;2022-07-01T07:54:33;17.40;99.90
5007;DHT22;2522;50.972;11.046;2022-07-01T07:57:00;17.40;99.90
5007;DHT22;2522;50.972;11.046;2022-07-01T07:59:27;17.40;99.90
5007;DHT22;2522;50.972;11.046;2022-07-01T08:01:53;17.30;99.90
5007;DHT22;2522;50.972;11.046;2022-07-01T08:04:22;17.30;99.90
5007;DHT22;2522;50.972;11.046;2022-07-01T08:06:48;17.40;99.90
5007;DHT22;2522;50.972;11.046;2022-07-01T08:09:15;17.40;99.90
5007;DHT22;2522;50.972;11.046;2022-07-01T08:11:42;17.40;99.90
5007;DHT22;2522;50.972;11.046;2022-07-01T08:14:08;17.40;99.90
5007;DHT22;2522;50.972;11.046;2022-07-01T08:16:35;17.50;99.90
5007;DHT22;2522;50.972;11.046;2022-07-01T08:19:02;17.40;99.90
5007;DHT22;2522;50.972;11.046;2022-07-01T08:21:30;17.30;99.90
5007;DHT22;2522;50.972;11.046;2022-07-01T08:23:57;17.20;99.90
5007;DHT22;2522;50.972;11.046;2022-07-01T08:26:23;17.10;99.90
5007;DHT22;2522;50.972;11.046;2022-07-01T08:28:50;17.10;99.90
5007;DHT22;2522;50.972;11.046;2022-07-01T08:31:17;17.10;99.90
5007;DHT22;2522;50.972;11.046;2022-07-01T08:33:43;17.10;99.90
5007;DHT22;2522;50.972;11.046;2022-07-01T08:36:10;17.00;99.90
5007;DHT22;2522;50.972;11.046;2022-07-01T08:38:40;16.90;99.90
5007;DHT22;2522;50.972;11.046;2022-07-01T08:41:07;16.90;99.90
5007;DHT22;2522;50.972;11.046;2022-07-01T08:43:34;16.90;99.90
5007;DHT22;2522;50.972;11.046;2022-07-01T08:46:01;16.80;99.90
5007;DHT22;2522;50.972;11.046;2022-07-01T08:48:28;17.00;99.90
5007;DHT22;2522;50.972;11.046;2022-07-01T08:50:55;16.90;99.90
5007;DHT22;2522;50.972;11.046;2022-07-01T08:53:22;16.90;99.90
5007;DHT22;2522;50.972;11.046;2022-07-01T08:55:50;16.90;99.90
5007;DHT22;2522;50.972;11.046;2022-07-01T08:58:34;17.10;99.90
5007;DHT22;2522;50.972;11.046;2022-07-01T09:01:12;17.10;99.90
5007;DHT22;2522;50.972;11.046;2022-07-01T09:03:38;17.10;99.90
5007;DHT22;2522;50.972;11.046;2022-07-01T09:06:06;17.20;99.90
5007;DHT22;2522;50.972;11.046;2022-07-01T09:08:37;17.40;99.90
5007;DHT22;2522;50.972;11.046;2022-07-01T09:11:11;17.50;99.90
5007;DHT22;2522;50.972;11.046;2022-07-01T09:13:38;17.60;99.90
5007;DHT22;2522;50.972;11.046;2022-07-01T09:16:10;17.80;99.90
5007;DHT22;2522;50.972;11.046;2022-07-01T09:18:36;17.90;99.90
5007;DHT22;2522;50.972;11.046;2022-07-01T09:21:05;18.00;99.90
5007;DHT22;2522;50.972;11.046;2022-07-01T09:23:33;18.00;99.90
5007;DHT22;2522;50.972;11.046;2022-07-01T09:26:00;18.00;99.90
5007;DHT22;2522;50.972;11.046;2022-07-01T09:28:28;18.10;99.90
5007;DHT22;2522;50.972;11.046;2022-07-01T09:30:55;18.00;99.90
5007;DHT22;2522;50.972;11.046;2022-07-01T09:33:23;17.90;99.90
5007;DHT22;2522;50.972;11.046;2022-07-01T09:35:51;17.80;99.90
5007;DHT22;2522;50.972;11.046;2022-07-01T09:38:18;17.80;99.90
5007;DHT22;2522;50.972;11.046;2022-07-01T09:40:50;17.70;99.90
5007;DHT22;2522;50.972;11.046;2022-07-01T09:43:18;17.70;99.90
5007;DHT22;2522;50.972;11.046;2022-07-01T09:45:56;17.70;99.90
5007;DHT22;2522;50.972;11.046;2022-07-01T09:48:25;17.70;99.90
5007;DHT22;2522;50.972;11.046;2022-07-01T09:50:52;17.70;99.90
5007;DHT22;2522;50.972;11.046;2022-07-01T09:53:19;17.80;99.90
5007;DHT22;2522;50.972;11.046;2022-07-01T09:55:46;17.80;99.90
5007;DHT22;2522;50.972;11.046;2022-07-01T09:58:12;17.80;99.90
5007;DHT22;2522;50.972;11.046;2022-07-01T10:00:39;17.80;99.90
5007;DHT22;2522;50.972;11.046;2022-07-01T10:03:07;17.80;99.90
5007;DHT22;2522;50.972;11.046;2022-07-01T10:05:37;17.90;99.90
5007;DHT22;2522;50.972;11.046;2022-07-01T10:08:07;17.90;99.90
5007;DHT22;2522;50.972;11.046;2022-07-01T10:10:40;17.80;99.90
5007;DHT22;2522;50.972;11.046;2022-07-01T10:13:08;17.80;99.90
5007;DHT22;2522;50.972;11.046;2022-07-01T10:15:35;17.70;99.90
5007;DHT22;2522;50.972;11.046;2022-07-01T10:18:03;17.80;99.90
5007;DHT22;2522;50.972;11.046;2022-07-01T10:20:31;17.70;99.90
5007;DHT22;2522;50.972;11.046;2022-07-01T10:23:01;17.70;99.90
5007;DHT22;2522;50.972;11.046;2022-07-01T10:25:30;17.60;99.90
5007;DHT22;2522;50.972;11.046;2022-07-01T10:28:16;17.60;99.90
5007;DHT22;2522;50.972;11.046;2022-07-01T10:30:50;17.60;99.90
5007;DHT22;2522;50.972;11.046;2022-07-01T10:33:26;17.50;99.90
5007;DHT22;2522;50.972;11.046;2022-07-01T10:35:54;17.40;99.90
5007;DHT22;2522;50.972;11.046;2022-07-01T10:38:21;17.40;99.90
5007;DHT22;2522;50.972;11.046;2022-07-01T10:40:48;17.30;99.90
5007;DHT22;2522;50.972;11.046;2022-07-01T10:43:15;17.40;99.90
5007;DHT22;2522;50.972;11.046;2022-07-01T10:45:42;17.40;99.90
5007;DHT22;2522;50.972;11.046;2022-07-01T10:48:19;17.50;99.90
5007;DHT22;2522;50.972;11.046;2022-07-01T10:50:46;17.50;99.90
5007;DHT22;2522;50.972;11.046;2022-07-01T10:53:14;17.60;99.90
5007;DHT22;2522;50.972;11.046;2022-07-01T10:55:44;17.50;99.90
5007;DHT22;2522;50.972;11.046;2022-07-01T10:58:11;17.50;99.90
5007;DHT22;2522;50.972;11.046;2022-07-01T11:00:40;17.40;99.90
5007;DHT22;2522;50.972;11.046;2022-07-01T11:03:17;17.40;99.90
5007;DHT22;2522;50.972;11.046;2022-07-01T11:05:44;17.30;99.90
5007;DHT22;2522;50.972;11.046;2022-07-01T11:08:11;17.30;99.90
5007;DHT22;2522;50.972;11.046;2022-07-01T11:10:40;17.40;99.90
5007;DHT22;2522;50.972;11.046;2022-07-01T11:13:06;17.50;99.90
5007;DHT22;2522;50.972;11.046;2022-07-01T11:15:33;17.40;99.90
5007;DHT22;2522;50.972;11.046;2022-07-01T11:18:00;17.50;99.90
5007;DHT22;2522;50.972;11.046;2022-07-01T11:20:29;17.50;99.90
5007;DHT22;2522;50.972;11.046;2022-07-01T11:22:56;17.60;99.90
5007;DHT22;2522;50.972;11.046;2022-07-01T11:25:22;17.70;99.90
5007;DHT22;2522;50.972;11.046;2022-07-01T11:27:51;17.80;99.90
5007;DHT22;2522;50.972;11.046;2022-07-01T11:30:18;17.80;99.90
5007;DHT22;2522;50.972;11.046;2022-07-01T11:32:46;17.90;99.90
5007;DHT22;2522;50.972;11.046;2022-07-01T11:35:14;18.00;99.90
5007;DHT22;2522;50.972;11.046;2022-07-01T11:38:05;18.10;99.90
5007;DHT22;2522;50.972;11.046;2022-07-01T11:40:50;18.20;99.90
5007;DHT22;2522;50.972;11.046;2022-07-01T11:43:22;18.30;99.90
5007;DHT22;2522;50.972;11.046;2022-07-01T11:45:48;18.40;99.90
5007;DHT22;2522;50.972;11.046;2022-07-01T11:48:31;18.50;99.90
5007;DHT22;2522;50.972;11.046;2022-07-01T11:50:58;18.50;99.90
5007;DHT22;2522;50.972;11.046;2022-07-01T11:53:25;18.60;99.90
5007;DHT22;2522;50.972;11.046;2022-07-01T11:55:52;18.80;99.90
5007;DHT22;2522;50.972;11.046;2022-07-01T11:58:18;18.90;99.90
5007;DHT22;2522;50.972;11.046;2022-07-01T12:00:46;18.90;99.90
5007;DHT22;2522;50.972;11.046;2022-07-01T12:03:13;18.90;99.90
5007;DHT22;2522;50.972;11.046;2022-07-01T12:05:54;19.00;99.90
5007;DHT22;2522;50.972;11.046;2022-07-01T12:08:21;18.90;99.90
5007;DHT22;2522;50.972;11.046;2022-07-01T12:10:47;18.90;99.90
5007;DHT22;2522;50.972;11.046;2022-07-01T12:13:20;18.80;99.90
5007;DHT22;2522;50.972;11.046;2022-07-01T12:15:48;18.70;99.90
5007;DHT22;2522;50.972;11.046;2022-07-01T12:18:15;18.70;99.90
5007;DHT22;2522;50.972;11.046;2022-07-01T12:20:47;18.70;99.90
5007;DHT22;2522;50.972;11.046;2022-07-01T12:23:13;18.90;99.90
5007;DHT22;2522;50.972;11.046;2022-07-01T12:25:40;18.80;99.90
5007;DHT22;2522;50.972;11.046;2022-07-01T12:28:23;18.90;99.90
5007;DHT22;2522;50.972;11.046;2022-07-01T12:30:59;19.00;99.90
5007;DHT22;2522;50.972;11.046;2022-07-01T12:33:26;19.00;99.90
5007;DHT22;2522;50.972;11.046;2022-07-01T12:35:53;19.00;99.90
5007;DHT22;2522;50.972;11.046;2022-07-01T12:38:20;19.00;99.90
5007;DHT22;2522;50.972;11.046;2022-07-01T12:40:46;18.90;99.90
5007;DHT22;2522;50.972;11.046;2022-07-01T12:43:23;18.80;99.90
5007;DHT22;2522;50.972;11.046;2022-07-01T12:45:50;18.80;99.90
5007;DHT22;2522;50.972;11.046;2022-07-01T12:48:18;18.80;99.90
5007;DHT22;2522;50.972;11.046;2022-07-01T12:50:45;18.80;99.90
5007;DHT22;2522;50.972;11.046;2022-07-01T12:53:18;18.80;99.90
5007;DHT22;2522;50.972;11.046;2022-07-01T12:55:45;18.80;99.90
5007;DHT22;2522;50.972;11.046;2022-07-01T12:58:12;18.80;99.90
5007;DHT22;2522;50.972;11.046;2022-07-01T13:00:40;18.80;99.90
5007;DHT22;2522;50.972;11.046;2022-07-01T13:03:07;18.80;99.90
5007;DHT22;2522;50.972;11.046;2022-07-01T13:05:36;18.70;99.90
5007;DHT22;2522;50.972;11.046;2022-07-01T13:08:04;18.80;99.90
5007;DHT22;2522;50.972;11.046;2022-07-01T13:10:31;18.70;99.90
5007;DHT22;2522;50.972;11.046;2022-07-01T13:12:58;18.70;99.90
5007;DHT22;2522;50.972;11.046;2022-07-01T13:15:25;18.60;99.90
5007;DHT22;2522;50.972;11.046;2022-07-01T13:17:53;18.50;99.90
5007;DHT22;2522;50.972;11.046;2022-07-01T13:20:19;18.40;99.90
5007;DHT22;2522;50.972;11.046;2022-07-01T13:22:48;18.40;99.90
5007;DHT22;2522;50.972;11.046;2022-07-01T13:25:14;18.40;99.90
5007;DHT22;2522;50.972;11.046;2022-07-01T13:27:41;18.50;99.90
5007;DHT22;2522;50.972;11.046;2022-07-01T13:30:08;18.50;99.90
5007;DHT22;2522;50.972;11.046;2022-07-01T13:32:35;18.50;99.90
5007;DHT22;2522;50.972;11.046;2022-07-01T13:35:02;18.50;99.90
5007;DHT22;2522;50.972;11.046;2022-07-01T13:37:29;18.60;99.90
5007;DHT22;2522;50.972;11.046;2022-07-01T13:39:57;18.60;99.90
5007;DHT22;2522;50.972;11.046;2022-07-01T13:42:24;18.60;99.90
5007;DHT22;2522;50.972;11.046;2022-07-01T13:44:50;18.60;99.90
5007;DHT22;2522;50.972;11.046;2022-07-01T13:47:17;18.60;99.90
5007;DHT22;2522;50.972;11.046;2022-07-01T13:49:43;18.60;99.90
5007;DHT22;2522;50.972;11.046;2022-07-01T13:52:10;18.60;99.90
5007;DHT22;2522;50.972;11.046;2022-07-01T13:54:38;18.60;99.90
5007;DHT22;2522;50.972;11.046;2022-07-01T13:57:06;18.80;99.90
5007;DHT22;2522;50.972;11.046;2022-07-01T13:59:33;18.80;99.90
5007;DHT22;2522;50.972;11.046;2022-07-01T14:02:00;18.80;99.90
5007;DHT22;2522;50.972;11.046;2022-07-01T14:04:27;18.90;99.90
5007;DHT22;2522;50.972;11.046;2022-07-01T14:06:53;19.00;99.90
5007;DHT22;2522;50.972;11.046;2022-07-01T14:09:21;19.10;99.90
5007;DHT22;2522;50.972;11.046;2022-07-01T14:11:48;19.10;99.90
5007;DHT22;2522;50.972;11.046;2022-07-01T14:14:16;19.00;99.90
5007;DHT22;2522;50.972;11.046;2022-07-01T14:16:42;19.00;99.90
5007;DHT22;2522;50.972;11.046;2022-07-01T14:19:09;19.00;99.90
5007;DHT22;2522;50.972;11.046;2022-07-01T14:21:36;19.00;99.90
5007;DHT22;2522;50.972;11.046;2022-07-01T14:24:03;19.00;99.90
5007;DHT22;2522;50.972;11.046;2022-07-01T14:26:29;19.00;99.90
5007;DHT22;2522;50.972;11.046;2022-07-01T14:28:56;18.90;99.90
5007;DHT22;2522;50.972;11.046;2022-07-01T14:31:24;18.90;99.90
5007;DHT22;2522;50.972;11.046;2022-07-01T14:33:51;18.80;99.90
5007;DHT22;2522;50.972;11.046;2022-07-01T14:36:17;18.70;99.90
5007;DHT22;2522;50.972;11.046;2022-07-01T14:38:44;18.70;99.90
5007;DHT22;2522;50.972;11.046;2022-07-01T14:41:11;18.60;99.90
5007;DHT22;2522;50.972;11.046;2022-07-01T14:43:37;18.60;99.90
5007;DHT22;2522;50.972;11.046;2022-07-01T14:46:04;18.50;99.90
5007;DHT22;2522;50.972;11.046;2022-07-01T14:48:35;18.60;99.90
5007;DHT22;2522;50.972;11.046;2022-07-01T14:51:03;18.50;99.90
5007;DHT22;2522;50.972;11.046;2022-07-01T14:53:30;18.60;99.90
5007;DHT22;2522;50.972;11.046;2022-07-01T14:55:57;18.90;99.90
5007;DHT22;2522;50.972;11.046;2022-07-01T14:58:24;19.10;99.90
5007;DHT22;2522;50.972;11.046;2022-07-01T15:00:51;19.40;99.90
5007;DHT22;2522;50.972;11.046;2022-07-01T15:03:18;19.60;99.90
5007;DHT22;2522;50.972;11.046;2022-07-01T15:05:46;19.80;99.90
5007;DHT22;2522;50.972;11.046;2022-07-01T15:08:13;20.00;99.90
5007;DHT22;2522;50.972;11.046;2022-07-01T15:10:40;20.10;99.90
5007;DHT22;2522;50.972;11.046;2022-07-01T15:13:07;20.10;99.90
5007;DHT22;2522;50.972;11.046;2022-07-01T15:15:33;20.00;99.90
5007;DHT22;2522;50.972;11.046;2022-07-01T15:18:00;20.00;99.90
5007;DHT22;2522;50.972;11.046;2022-07-01T15:20:27;20.00;99.90
5007;DHT22;2522;50.972;11.046;2022-07-01T15:22:56;20.00;99.90
5007;DHT22;2522;50.972;11.046;2022-07-01T15:25:23;20.00;99.90
5007;DHT22;2522;50.972;11.046;2022-07-01T15:27:49;20.10;99.90
5007;DHT22;2522;50.972;11.046;2022-07-01T15:30:16;20.10;99.90
5007;DHT22;2522;50.972;11.046;2022-07-01T15:32:43;20.00;99.90
5007;DHT22;2522;50.972;11.046;2022-07-01T15:35:10;20.00;99.90
5007;DHT22;2522;50.972;11.046;2022-07-01T15:37:38;20.00;99.90
5007;DHT22;2522;50.972;11.046;2022-07-01T15:40:07;20.00;99.90
5007;DHT22;2522;50.972;11.046;2022-07-01T15:42:35;20.00;99.90
5007;DHT22;2522;50.972;11.046;2022-07-01T15:45:04;20.20;99.90
5007;DHT22;2522;50.972;11.046;2022-07-01T15:47:30;20.30;99.90
5007;DHT22;2522;50.972;11.046;2022-07-01T15:50:15;20.40;99.90
5007;DHT22;2522;50.972;11.046;2022-07-01T15:52:44;20.40;99.90
5007;DHT22;2522;50.972;11.046;2022-07-01T15:55:14;20.50;99.90
5007;DHT22;2522;50.972;11.046;2022-07-01T15:57:42;20.50;99.90
5007;DHT22;2522;50.972;11.046;2022-07-01T16:00:09;20.70;99.90
5007;DHT22;2522;50.972;11.046;2022-07-01T16:02:37;20.80;99.90
5007;DHT22;2522;50.972;11.046;2022-07-01T16:05:04;20.80;99.90
5007;DHT22;2522;50.972;11.046;2022-07-01T16:07:31;20.90;99.90
5007;DHT22;2522;50.972;11.046;2022-07-01T16:10:02;20.90;99.90
5007;DHT22;2522;50.972;11.046;2022-07-01T16:12:30;20.90;99.90
5007;DHT22;2522;50.972;11.046;2022-07-01T16:14:58;21.00;99.90
5007;DHT22;2522;50.972;11.046;2022-07-01T16:17:26;21.10;99.90
5007;DHT22;2522;50.972;11.046;2022-07-01T16:19:54;21.30;99.90
5007;DHT22;2522;50.972;11.046;2022-07-01T16:22:22;21.50;99.90
5007;DHT22;2522;50.972;11.046;2022-07-01T16:24:50;21.70;99.90
5007;DHT22;2522;50.972;11.046;2022-07-01T16:27:17;21.80;99.90
5007;DHT22;2522;50.972;11.046;2022-07-01T16:29:47;21.90;99.90
5007;DHT22;2522;50.972;11.046;2022-07-01T16:32:14;21.90;99.90
5007;DHT22;2522;50.972;11.046;2022-07-01T16:34:41;22.00;99.90
5007;DHT22;2522;50.972;11.046;2022-07-01T16:37:09;22.00;99.90
5007;DHT22;2522;50.972;11.046;2022-07-01T16:39:36;22.00;99.90
5007;DHT22;2522;50.972;11.046;2022-07-01T16:42:07;22.00;99.90
5007;DHT22;2522;50.972;11.046;2022-07-01T16:44:42;22.10;99.90
5007;DHT22;2522;50.972;11.046;2022-07-01T16:47:12;22.10;99.90
5007;DHT22;2522;50.972;11.046;2022-07-01T16:49:40;21.90;99.90
5007;DHT22;2522;50.972;11.046;2022-07-01T16:52:08;21.80;99.90
5007;DHT22;2522;50.972;11.046;2022-07-01T16:54:35;21.70;99.90
5007;DHT22;2522;50.972;11.046;2022-07-01T16:57:02;21.70;99.90
5007;DHT22;2522;50.972;11.046;2022-07-01T16:59:31;21.70;99.90
5007;DHT22;2522;50.972;11.046;2022-07-01T17:01:59;21.70;99.90
5007;DHT22;2522;50.972;11.046;2022-07-01T17:04:27;21.80;99.90
5007;DHT22;2522;50.972;11.046;2022-07-01T17:06:54;21.70;99.90
5007;DHT22;2522;50.972;11.046;2022-07-01T17:09:22;21.60;99.90
5007;DHT22;2522;50.972;11.046;2022-07-01T17:11:49;21.50;99.90
5007;DHT22;2522;50.972;11.046;2022-07-01T17:14:16;21.60;99.90
5007;DHT22;2522;50.972;11.046;2022-07-01T17:16:43;21.60;99.90
5007;DHT22;2522;50.972;11.046;2022-07-01T17:19:10;21.70;99.90
5007;DHT22;2522;50.972;11.046;2022-07-01T17:21:39;21.70;99.90
5007;DHT22;2522;50.972;11.046;2022-07-01T17:24:07;21.70;99.90
5007;DHT22;2522;50.972;11.046;2022-07-01T17:26:35;21.80;99.90
5007;DHT22;2522;50.972;11.046;2022-07-01T17:29:02;21.80;99.90
5007;DHT22;2522;50.972;11.046;2022-07-01T17:31:32;21.80;99.90
5007;DHT22;2522;50.972;11.046;2022-07-01T17:34:01;21.80;99.90
5007;DHT22;2522;50.972;11.046;2022-07-01T17:36:29;21.70;99.90
5007;DHT22;2522;50.972;11.046;2022-07-01T17:39:17;21.70;99.90
5007;DHT22;2522;50.972;11.046;2022-07-01T17:41:52;21.80;99.90
5007;DHT22;2522;50.972;11.046;2022-07-01T17:47:08;21.80;99.90
5007;DHT22;2522;50.972;11.046;2022-07-01T17:49:36;21.80;99.90
5007;DHT22;2522;50.972;11.046;2022-07-01T17:52:05;21.80;99.90
5007;DHT22;2522;50.972;11.046;2022-07-01T17:54:41;21.80;99.90
5007;DHT22;2522;50.972;11.046;2022-07-01T17:57:11;21.60;99.90
5007;DHT22;2522;50.972;11.046;2022-07-01T17:59:39;21.70;99.90
5007;DHT22;2522;50.972;11.046;2022-07-01T18:02:06;21.70;99.90
5007;DHT22;2522;50.972;11.046;2022-07-01T18:04:33;21.60;99.90
5007;DHT22;2522;50.972;11.046;2022-07-01T18:06:59;21.60;99.90
5007;DHT22;2522;50.972;11.046;2022-07-01T18:09:28;21.60;99.90
5007;DHT22;2522;50.972;11.046;2022-07-01T18:12:01;21.60;99.90
5007;DHT22;2522;50.972;11.046;2022-07-01T18:14:37;21.60;99.90
5007;DHT22;2522;50.972;11.046;2022-07-01T18:17:09;21.50;99.90
5007;DHT22;2522;50.972;11.046;2022-07-01T18:19:55;21.40;99.90
5007;DHT22;2522;50.972;11.046;2022-07-01T18:22:25;21.40;99.90
5007;DHT22;2522;50.972;11.046;2022-07-01T18:24:53;21.40;99.90
5007;DHT22;2522;50.972;11.046;2022-07-01T18:27:25;21.30;99.90
5007;DHT22;2522;50.972;11.046;2022-07-01T18:29:53;21.30;99.90
5007;DHT22;2522;50.972;11.046;2022-07-01T18:32:19;21.70;99.90
5007;DHT22;2522;50.972;11.046;2022-07-01T18:34:50;22.30;99.90
5007;DHT22;2522;50.972;11.046;2022-07-01T18:37:20;22.90;99.90
5007;DHT22;2522;50.972;11.046;2022-07-01T18:39:47;23.50;99.90
5007;DHT22;2522;50.972;11.046;2022-07-01T18:42:13;23.90;99.90
5007;DHT22;2522;50.972;11.046;2022-07-01T18:44:41;23.90;99.90
5007;DHT22;2522;50.972;11.046;2022-07-01T18:47:10;23.50;99.90
5007;DHT22;2522;50.972;11.046;2022-07-01T18:49:37;23.00;99.90
5007;DHT22;2522;50.972;11.046;2022-07-01T18:52:04;22.50;99.90
5007;DHT22;2522;50.972;11.046;2022-07-01T18:54:31;22.10;99.90
5007;DHT22;2522;50.972;11.046;2022-07-01T18:56:58;21.70;99.90
5007;DHT22;2522;50.972;11.046;2022-07-01T18:59:25;21.40;99.90
5007;DHT22;2522;50.972;11.046;2022-07-01T19:01:53;21.20;99.90
5007;DHT22;2522;50.972;11.046;2022-07-01T19:04:20;21.00;99.90
5007;DHT22;2522;50.972;11.046;2022-07-01T19:06:46;20.80;99.90
5007;DHT22;2522;50.972;11.046;2022-07-01T19:09:13;20.60;99.90
5007;DHT22;2522;50.972;11.046;2022-07-01T19:11:39;20.50;99.90
5007;DHT22;2522;50.972;11.046;2022-07-01T19:14:06;20.30;99.90
5007;DHT22;2522;50.972;11.046;2022-07-01T19:16:33;20.20;99.90
5007;DHT22;2522;50.972;11.046;2022-07-01T19:19:01;20.10;99.90
5007;DHT22;2522;50.972;11.046;2022-07-01T19:21:28;20.00;99.90
5007;DHT22;2522;50.972;11.046;2022-07-01T19:23:55;19.80;99.90